Detall de PIREP

Printer-friendly versionPDF version

[2015/08/17 14:13:00]
Flight IATA:CT2115
Pilot Number:030
Company ICAO:CAT
Aircraft Type:B738/F
PAX:122
Departing Airport: LEXJ
Destination Airport: LEVC
Alternate Airport:LEPA
Online: VATSIM
Route:BLV UM601 GRAUS UN860 SAURA
Flight Level:F340
No Slew and time accel
No pause
Crash detect
Detect pilot in Cockpit between each 30 and 45 minutes
14:13 Zero fuel Weight: 137016 Lbs, Fuel Weight: 14997 Lbs
14:13 VATSIM:LEXJ 171400Z 05007KT 020V080 9999 FEW030 21/15 Q1016
14:13 VATSIM:LEVC 171400Z 07016KT 040V110 9999 SCT022 FEW030TCU 27/21 Q1011 TEMPO FEW030CB
14:14 Parking Brakes off
14:21 Take-off
14:21 Take off Weight: 151175 Lbs
14:21 Wind: 057º @ 006 Knots Heading: 291º
14:21 POS N43º 25´ 39´´ W003º 49´ 19´´
14:21 Gear Up: 149 Knots
14:21 Flaps:3 at 149 Knots
14:22 Flaps:1 at 174 Knots
14:22 Flaps:0 at 202 Knots
14:36 Wind:299º@051 Knots Heading: 122º Ground Speed: 513 Knots Altitude 31007 ft
14:51 Wind:273º@056 Knots Heading: 203º Ground Speed: 457 Knots Altitude 32979 ft
15:06 Wind:286º@033 Knots Heading: 201º Ground Speed: 437 Knots Altitude 23287 ft
15:10 Flaps:2 at 237 Knots
15:10 Flaps:3 at 237 Knots
15:10 Flaps:4 at 235 Knots
15:10 Flaps:2 at 221 Knots
15:11 Flaps:3 at 218 Knots
15:11 Flaps:4 at 208 Knots
15:14 Gear Down: 192 Knots
15:14 Flaps:5 at 193 Knots
15:14 Flaps:6 at 192 Knots
15:14 Flaps:7 at 176 Knots
15:15 Flaps:6 at 181 Knots
15:16 Flaps:8 at 185 Knots
15:16 Flaps:7 at 174 Knots
15:16 Flaps:8 at 165 Knots
15:16 TouchDown:Rate -225 ft/min Speed: 132 Knots
15:17 VATSIM:LEVC 171500Z 07013KT 050V110 9999 SCT022 FEW030CB SCT050 28/21 Q1011 TEMPO TSRA
15:17 Land
15:17 Wind:087º@013 Knots
15:17 Heading: 114º
15:17 Flight Duration: 00:56
15:17 Landing Weight: 144071 Lbs
15:17 POS N39º 29´ 28´´ W000º29´ 11´´
15:19 Parking brakes on
15:19 Block to Block Duration: 01:05
15:19 Final Fuel: 6909 Lbls
15:19 Spent Fuel: 8088 Lbls
15:19 Flight Length: 389 NM
15:19 TOD Land Length: 389 NM

Exportar CSV

Powered by Drupal - Modified by Danger4k